Time;durP1;ratioP1;P1;durP2;ratioP2;P2;SDS_P1;SDS_P2;PMS_P1;PMS_P2;Temp;Humidity;BMP_temperature;BMP_pressure;BME280_temperature;BME280_humidity;BME280_pressure;Samples;Min_cycle;Max_cycle;Signal;HPM_P1;HPM_P2
2022/12/17 13:06:08;;;;;;;47.08;16.55;;;-2.10;99.90;;;;;;7404235;19;19925;-69
2022/12/17 13:08:38;;;;;;;47.67;16.85;;;-3.00;99.90;;;;;;7403210;19;19914;-71
2022/12/17 13:11:31;;;;;;;47.20;16.48;;;-2.10;99.90;;;;;;7403718;19;19925;-70
2022/12/17 13:14:07;;;;;;;49.85;18.23;;;-2.70;99.90;;;;;;7404044;19;20263;-70
2022/12/17 13:16:50;;;;;;;52.70;19.13;;;-1.80;99.90;;;;;;7403048;19;20300;-72
2022/12/17 13:19:23;;;;;;;44.92;16.98;;;-2.10;99.90;;;;;;7406284;19;20036;-70
2022/12/17 13:21:52;;;;;;;41.15;14.88;;;-1.50;99.90;;;;;;7403191;19;19919;-70
2022/12/17 13:24:27;;;;;;;54.65;18.00;;;-2.70;99.90;;;;;;7402071;19;19927;-69
2022/12/17 13:27:06;;;;;;;43.05;16.70;;;-2.20;99.90;;;;;;7404349;19;19922;-70
2022/12/17 13:29:38;;;;;;;50.83;18.38;;;-1.70;99.90;;;;;;7405812;19;19938;-71
2022/12/17 13:32:21;;;;;;;47.80;17.73;;;-1.70;99.90;;;;;;7402290;19;20271;-71
2022/12/17 13:35:02;;;;;;;56.88;20.15;;;-2.70;99.90;;;;;;7402604;19;19914;-70
2022/12/17 13:37:38;;;;;;;48.55;18.63;;;-2.10;99.90;;;;;;7402758;19;20253;-69
2022/12/17 13:40:22;;;;;;;53.55;18.58;;;-3.10;99.90;;;;;;7402503;19;19978;-70
2022/12/17 13:42:54;;;;;;;52.70;18.85;;;-3.00;99.90;;;;;;7402068;19;19915;-70
2022/12/17 13:45:26;;;;;;;48.28;18.55;;;-1.80;99.90;;;;;;7402526;19;19918;-68
2022/12/17 13:47:57;;;;;;;45.00;14.55;;;-2.00;99.90;;;;;;7402513;19;20014;-69
2022/12/17 13:50:27;;;;;;;50.40;17.40;;;-2.90;99.90;;;;;;7405744;19;19946;-70
2022/12/17 13:53:11;;;;;;;50.45;18.42;;;-1.60;99.90;;;;;;7405223;19;19930;-70
2022/12/17 13:55:41;;;;;;;45.03;17.15;;;-2.90;99.90;;;;;;7401426;19;20342;-70
2022/12/17 13:58:26;;;;;;;51.92;17.13;;;-1.50;99.90;;;;;;7402658;19;19915;-70
2022/12/17 14:01:07;;;;;;;51.33;14.75;;;-2.20;99.90;;;;;;7400449;19;20271;-71
2022/12/17 14:03:57;;;;;;;47.53;16.80;;;-2.20;99.90;;;;;;7390441;19;20025;-70
2022/12/17 14:06:29;;;;;;;54.10;17.58;;;-2.40;99.90;;;;;;7402165;19;19922;-69
2022/12/17 14:08:59;;;;;;;47.67;17.60;;;-1.70;99.90;;;;;;7402152;19;19988;-69
2022/12/17 14:14:22;;;;;;;46.28;15.82;;;-1.60;99.90;;;;;;7400608;19;20254;-69
2022/12/17 14:16:51;;;;;;;48.55;17.77;;;-1.70;99.90;;;;;;7401634;19;19921;-70
2022/12/17 14:19:20;;;;;;;43.42;16.27;;;-2.20;99.90;;;;;;7403319;19;20257;-70
2022/12/17 14:21:50;;;;;;;49.28;16.95;;;-2.10;99.90;;;;;;7401281;19;19926;-69
2022/12/17 14:24:25;;;;;;;44.85;15.43;;;-2.30;99.90;;;;;;7404286;19;19938;-70
2022/12/17 14:26:57;;;;;;;53.17;19.02;;;-2.10;99.90;;;;;;7402042;19;19918;-70
2022/12/17 14:29:34;;;;;;;43.80;14.55;;;-2.30;99.90;;;;;;7404787;19;19932;-70
2022/12/17 14:32:22;;;;;;;45.17;14.43;;;-1.70;99.90;;;;;;7400380;19;20259;-69
2022/12/17 14:34:52;;;;;;;44.85;15.95;;;-1.60;99.90;;;;;;7400491;19;19938;-71
2022/12/17 14:37:25;;;;;;;52.88;15.93;;;-2.20;99.90;;;;;;7402931;19;20617;-68
2022/12/17 14:40:00;;;;;;;43.10;15.20;;;-2.50;99.90;;;;;;7407517;19;19918;-69
2022/12/17 14:42:33;;;;;;;51.05;16.42;;;-2.70;99.90;;;;;;7408158;19;20305;-69
2022/12/17 14:45:07;;;;;;;44.35;13.38;;;-2.90;99.90;;;;;;7410040;19;19927;-69
2022/12/17 14:47:38;;;;;;;49.08;16.98;;;-2.00;99.90;;;;;;7407943;19;19970;-70
2022/12/17 14:50:29;;;;;;;45.72;15.77;;;-1.60;99.90;;;;;;7411443;19;19915;-70
2022/12/17 14:53:05;;;;;;;47.25;17.30;;;-1.90;99.90;;;;;;7412125;19;19939;-69
2022/12/17 14:55:56;;;;;;;49.53;16.25;;;-2.70;99.90;;;;;;7408387;19;20630;-71
2022/12/17 14:58:27;;;;;;;47.28;15.95;;;-2.60;99.90;;;;;;7408752;19;19914;-70
2022/12/17 15:01:17;;;;;;;50.15;16.98;;;-2.00;99.90;;;;;;7414141;19;19946;-69
2022/12/17 15:03:47;;;;;;;43.53;14.50;;;-2.20;99.90;;;;;;7411972;19;20251;-69
2022/12/17 15:06:20;;;;;;;54.42;17.13;;;-2.80;99.90;;;;;;7412078;19;19959;-69
2022/12/17 15:09:06;;;;;;;49.58;16.30;;;-1.80;99.90;;;;;;7408489;19;19915;-68
2022/12/17 15:11:56;;;;;;;54.13;16.88;;;-2.60;99.90;;;;;;7405055;19;19974;-70
2022/12/17 15:14:35;;;;;;;53.83;16.73;;;-3.20;99.90;;;;;;7396319;19;20023;-70
2022/12/17 15:17:07;;;;;;;52.30;17.67;;;-2.30;99.90;;;;;;7407999;19;19911;-69
2022/12/17 15:19:37;;;;;;;46.53;16.73;;;-3.30;99.90;;;;;;7405940;19;19922;-68
2022/12/17 15:22:06;;;;;;;42.63;14.35;;;-2.20;99.90;;;;;;7410171;19;19941;-69
2022/12/17 15:24:36;;;;;;;43.45;15.10;;;-2.00;99.90;;;;;;7396037;19;20349;-70
2022/12/17 15:27:06;;;;;;;47.60;17.08;;;-2.20;99.90;;;;;;7406185;19;19915;-69
2022/12/17 15:29:35;;;;;;;55.22;17.58;;;-2.30;99.90;;;;;;7405798;19;19929;-68
2022/12/17 15:32:08;;;;;;;54.17;16.02;;;-1.90;99.90;;;;;;7405871;19;19915;-69
2022/12/17 15:34:37;;;;;;;52.83;18.58;;;-2.00;99.90;;;;;;7407826;19;20357;-69
2022/12/17 15:37:22;;;;;;;51.70;14.63;;;-3.00;99.90;;;;;;7405705;19;19915;-70
2022/12/17 15:39:51;;;;;;;47.22;16.38;;;-2.00;99.90;;;;;;7405688;19;19925;-70
2022/12/17 15:45:02;;;;;;;59.38;17.27;;;-2.30;99.90;;;;;;7403697;19;20334;-69
2022/12/17 15:47:33;;;;;;;55.58;14.80;;;-2.90;99.90;;;;;;7405082;19;19925;-69
2022/12/17 15:50:02;;;;;;;55.83;16.00;;;-2.90;99.90;;;;;;7407168;19;19914;-69
2022/12/17 15:52:31;;;;;;;56.10;16.08;;;-2.90;99.90;;;;;;7409151;19;19925;-69
2022/12/17 15:55:00;;;;;;;37.30;13.82;;;;;;;;;;7405377;19;19922;-68
2022/12/17 15:57:29;;;;;;;43.95;12.95;;;-3.70;99.90;;;;;;7405423;19;20021;-68
2022/12/17 15:59:58;;;;;;;42.33;13.75;;;-2.50;99.90;;;;;;7404194;19;19945;-69
2022/12/17 16:02:27;;;;;;;35.47;11.82;;;-2.80;99.90;;;;;;7404208;19;19938;-70
2022/12/17 16:04:59;;;;;;;51.58;13.43;;;-3.00;99.90;;;;;;7396550;19;20018;-69
2022/12/17 16:07:28;;;;;;;46.40;14.23;;;-2.80;99.90;;;;;;7405571;19;20314;-68
2022/12/17 16:09:56;;;;;;;43.25;14.68;;;-2.90;99.90;;;;;;7410232;19;19925;-69
2022/12/17 16:12:25;;;;;;;43.25;13.90;;;-3.40;99.90;;;;;;7405137;19;19954;-69
2022/12/17 16:14:54;;;;;;;53.63;14.82;;;-2.80;99.90;;;;;;7405721;19;19932;-69
2022/12/17 16:17:23;;;;;;;43.63;13.13;;;-2.60;99.90;;;;;;7406958;19;19927;-70
2022/12/17 16:19:52;;;;;;;52.90;14.00;;;-2.30;99.90;;;;;;7406584;19;19925;-69
2022/12/17 16:22:24;;;;;;;54.92;14.27;;;-2.70;99.90;;;;;;7408977;19;19922;-70
2022/12/17 16:24:53;;;;;;;43.28;12.27;;;-3.60;99.90;;;;;;7403595;19;20334;-69
2022/12/17 16:27:23;;;;;;;52.58;13.07;;;-2.60;99.90;;;;;;7404047;19;19926;-69
2022/12/17 16:29:52;;;;;;;58.58;18.30;;;;;;;;;;7404676;19;20278;-69
2022/12/17 16:32:22;;;;;;;58.88;15.18;;;-3.20;99.90;;;;;;7404137;19;20243;-69
2022/12/17 16:34:50;;;;;;;47.40;15.23;;;-2.80;99.90;;;;;;7404476;19;19911;-69
2022/12/17 16:37:20;;;;;;;51.08;14.15;;;;;;;;;;7403814;19;19918;-69
2022/12/17 16:39:51;;;;;;;45.80;13.27;;;-4.00;99.90;;;;;;7402531;19;19926;-68
2022/12/17 16:42:20;;;;;;;50.67;14.38;;;-4.00;99.90;;;;;;7405781;19;19947;-69
2022/12/17 16:44:49;;;;;;;48.63;14.18;;;;;;;;;;7397003;19;20010;-68
2022/12/17 16:47:19;;;;;;;43.53;12.23;;;-3.60;99.90;;;;;;7403860;19;19910;-69
2022/12/17 16:49:47;;;;;;;44.05;13.25;;;-2.60;99.90;;;;;;7404030;19;19931;-69
2022/12/17 16:52:16;;;;;;;37.05;13.70;;;-2.90;99.90;;;;;;7407360;19;19923;-68
2022/12/17 16:54:45;;;;;;;45.55;13.52;;;-4.10;99.90;;;;;;7403075;19;19926;-69
2022/12/17 16:57:17;;;;;;;53.85;15.25;;;-2.80;99.90;;;;;;7404032;19;19925;-69
2022/12/17 16:59:46;;;;;;;40.28;14.77;;;-3.90;99.90;;;;;;7402895;19;19918;-69
2022/12/17 17:02:16;;;;;;;55.33;16.10;;;-3.80;99.90;;;;;;7403141;19;19947;-69
2022/12/17 17:04:45;;;;;;;43.40;12.23;;;-3.60;99.90;;;;;;7402583;19;20331;-69
2022/12/17 17:07:14;;;;;;;53.13;13.93;;;-3.80;99.90;;;;;;7401650;19;19948;-69
2022/12/17 17:09:43;;;;;;;59.75;15.25;;;-3.70;99.90;;;;;;7403501;19;20265;-69
2022/12/17 17:12:12;;;;;;;61.92;16.40;;;;;;;;;;7403373;19;19931;-69
2022/12/17 17:14:44;;;;;;;61.00;17.92;;;-3.50;99.90;;;;;;7403480;19;19915;-69
2022/12/17 17:17:13;;;;;;;57.08;18.67;;;;;;;;;;7404726;19;19933;-69
2022/12/17 17:19:45;;;;;;;55.67;18.48;;;-3.10;99.90;;;;;;7404377;19;19926;-69
2022/12/17 17:22:14;;;;;;;46.97;14.93;;;-3.70;99.90;;;;;;7405588;19;19933;-69
2022/12/17 17:24:43;;;;;;;65.25;20.00;;;-4.10;99.90;;;;;;7401937;19;19914;-70
2022/12/17 17:27:12;;;;;;;41.70;15.50;;;-3.80;99.90;;;;;;7402593;19;20301;-69
2022/12/17 17:29:44;;;;;;;57.83;18.13;;;-3.50;99.90;;;;;;7403152;19;20309;-69
2022/12/17 17:32:13;;;;;;;62.20;17.92;;;-3.10;99.90;;;;;;7401905;19;19918;-70
2022/12/17 17:34:42;;;;;;;55.88;17.88;;;-3.50;99.90;;;;;;7406993;19;20019;-69
2022/12/17 17:37:12;;;;;;;58.78;16.70;;;-3.80;99.90;;;;;;7402959;19;19929;-69
2022/12/17 17:39:41;;;;;;;45.17;15.23;;;-4.30;99.90;;;;;;7402086;19;19970;-70
2022/12/17 17:42:10;;;;;;;57.20;17.23;;;-3.20;99.90;;;;;;7402206;19;19923;-70
2022/12/17 17:44:39;;;;;;;57.60;15.88;;;-2.80;99.90;;;;;;7401023;19;19918;-70
2022/12/17 17:47:11;;;;;;;55.08;17.40;;;-2.80;99.90;;;;;;7401884;19;19919;-70
2022/12/17 17:49:40;;;;;;;48.03;15.50;;;;;;;;;;7403179;19;20279;-70
2022/12/17 17:52:09;;;;;;;43.42;14.18;;;-3.50;99.90;;;;;;7402039;19;19915;-68
2022/12/17 17:54:38;;;;;;;55.88;16.48;;;-3.80;99.90;;;;;;7401299;19;19986;-68
2022/12/17 17:57:07;;;;;;;60.78;17.52;;;-4.30;99.90;;;;;;7398911;19;19911;-68
2022/12/17 17:59:38;;;;;;;61.60;17.08;;;;;;;;;;7400634;19;19934;-69
2022/12/17 18:02:07;;;;;;;60.70;17.88;;;-4.20;99.90;;;;;;7400085;19;19925;-69
2022/12/17 18:04:39;;;;;;;65.30;19.15;;;-3.70;99.90;;;;;;7400302;19;19950;-69
2022/12/17 18:07:08;;;;;;;60.22;16.88;;;-3.30;99.90;;;;;;7402196;19;19937;-69
2022/12/17 18:09:37;;;;;;;66.95;17.13;;;-4.10;99.90;;;;;;7400750;19;20239;-69
2022/12/17 18:13:53;;;;;;;76.60;19.38;;;-3.40;99.90;;;;;;7406483;19;20621;-69
2022/12/17 18:14:54;;;;;;;66.20;19.83;;;-3.40;99.90;;;;;;7408075;19;19925;-70
2022/12/17 18:17:23;;;;;;;54.40;18.13;;;-3.50;99.90;;;;;;7409865;19;19930;-69
2022/12/17 18:19:55;;;;;;;58.25;17.63;;;-3.70;99.90;;;;;;7409752;19;19923;-69
2022/12/17 18:22:30;;;;;;;53.90;16.90;;;-3.40;99.90;;;;;;7408387;19;20647;-69
2022/12/17 18:24:59;;;;;;;62.00;19.10;;;-4.00;99.90;;;;;;7409460;19;19970;-69
2022/12/17 18:27:28;;;;;;;64.07;20.23;;;-3.80;99.90;;;;;;7408437;19;19910;-69
2022/12/17 18:29:58;;;;;;;62.63;18.85;;;;;;;;;;7408560;19;19933;-70
2022/12/17 18:32:27;;;;;;;60.67;19.00;;;;;;;;;;7406555;19;20360;-70
2022/12/17 18:34:58;;;;;;;68.35;20.02;;;-2.50;99.90;;;;;;7407916;19;20063;-68
2022/12/17 18:37:28;;;;;;;69.00;19.65;;;-4.10;99.90;;;;;;7407423;19;19911;-68
2022/12/17 18:39:57;;;;;;;57.40;19.35;;;-2.60;99.90;;;;;;7407964;19;19996;-69
2022/12/17 18:45:09;;;;;;;59.17;18.40;;;-3.20;99.90;;;;;;7407512;19;19926;-69
2022/12/17 18:47:38;;;;;;;58.25;19.48;;;-3.50;99.90;;;;;;7407919;19;19919;-69
2022/12/17 18:50:11;;;;;;;62.78;20.52;;;-3.70;99.90;;;;;;7408352;19;19939;-69
2022/12/17 18:52:40;;;;;;;79.28;24.02;;;-4.10;99.90;;;;;;7407320;19;19918;-69
2022/12/17 18:55:09;;;;;;;70.03;20.48;;;-2.00;99.90;;;;;;7406944;19;19926;-69
2022/12/17 18:57:38;;;;;;;73.25;24.13;;;-4.10;99.90;;;;;;7406856;19;19919;-69
2022/12/17 19:00:09;;;;;;;73.28;23.40;;;-3.40;99.90;;;;;;7406659;19;19919;-69
2022/12/17 19:02:37;;;;;;;74.88;24.35;;;-3.80;99.90;;;;;;7406491;19;19941;-70
2022/12/17 19:05:10;;;;;;;71.00;25.38;;;-3.70;99.90;;;;;;7406306;19;19922;-70
2022/12/17 19:07:39;;;;;;;81.85;26.95;;;-2.80;99.90;;;;;;7406663;19;19919;-69
2022/12/17 19:10:09;;;;;;;76.63;24.45;;;-3.00;99.90;;;;;;7406561;19;20332;-70
2022/12/17 19:12:38;;;;;;;77.15;22.45;;;-3.60;99.90;;;;;;7406819;19;19950;-70
2022/12/17 19:15:07;;;;;;;78.82;25.02;;;-4.00;99.90;;;;;;7407319;19;19919;-70
2022/12/17 19:17:36;;;;;;;74.82;23.77;;;-3.80;99.90;;;;;;7408809;19;20333;-69
2022/12/17 19:20:06;;;;;;;69.57;24.15;;;-4.00;99.90;;;;;;7408875;19;20001;-69
2022/12/17 19:22:37;;;;;;;77.90;24.23;;;-3.90;99.90;;;;;;7408562;19;19974;-69
2022/12/17 19:25:07;;;;;;;78.90;24.13;;;-3.70;99.90;;;;;;7400227;19;20485;-69
2022/12/17 19:27:36;;;;;;;69.00;23.80;;;;;;;;;;7406310;19;19971;-69
2022/12/17 19:30:07;;;;;;;86.50;25.55;;;-3.10;99.90;;;;;;7406251;19;19915;-69
2022/12/17 19:32:36;;;;;;;73.22;24.65;;;-3.20;99.90;;;;;;7407444;19;19970;-69
2022/12/17 19:35:05;;;;;;;83.20;24.73;;;-4.20;99.90;;;;;;7406056;19;19924;-69
2022/12/17 19:37:37;;;;;;;79.03;24.38;;;-3.80;99.90;;;;;;7406040;19;19922;-69
2022/12/17 19:40:07;;;;;;;59.63;21.30;;;-4.00;99.90;;;;;;7404216;19;19938;-69
2022/12/17 19:42:36;;;;;;;83.35;24.33;;;-3.70;99.90;;;;;;7406798;19;19929;-70
2022/12/17 19:45:05;;;;;;;73.72;24.35;;;-3.60;99.90;;;;;;7407531;19;20334;-69
2022/12/17 19:47:34;;;;;;;62.00;20.17;;;-3.80;99.90;;;;;;7405555;19;20060;-69
2022/12/17 19:50:04;;;;;;;71.65;23.98;;;-3.60;99.90;;;;;;7408789;19;20301;-69
2022/12/17 19:52:33;;;;;;;78.85;22.55;;;-2.90;99.90;;;;;;7405969;19;20275;-69
2022/12/17 19:55:05;;;;;;;81.85;22.98;;;-4.10;99.90;;;;;;7406265;19;19915;-69
2022/12/17 19:57:36;;;;;;;69.82;22.88;;;-4.00;99.90;;;;;;7405772;19;20332;-69
2022/12/17 20:00:05;;;;;;;73.63;23.08;;;-2.80;99.90;;;;;;7405056;19;19915;-67
2022/12/17 20:02:38;;;;;;;70.47;21.95;;;-4.10;99.90;;;;;;7404618;19;19925;-69
2022/12/17 20:05:09;;;;;;;70.90;24.42;;;-4.00;99.90;;;;;;7401133;19;20007;-69
2022/12/17 20:07:38;;;;;;;76.05;24.52;;;-4.60;99.90;;;;;;7409115;19;20327;-69
2022/12/17 20:10:13;;;;;;;70.30;25.17;;;-3.80;99.90;;;;;;7405254;19;19913;-68
2022/12/17 20:12:42;;;;;;;67.00;21.25;;;-3.90;99.90;;;;;;7404999;19;19930;-67
2022/12/17 20:15:13;;;;;;;62.55;22.13;;;-3.30;99.90;;;;;;7408543;19;19943;-67
2022/12/17 20:17:47;;;;;;;69.97;23.38;;;-3.20;99.90;;;;;;7407735;19;19935;-69
2022/12/17 20:20:16;;;;;;;81.13;25.52;;;-3.10;99.90;;;;;;7407242;19;19926;-69
2022/12/17 20:22:45;;;;;;;71.88;23.48;;;-3.20;99.90;;;;;;7407901;19;19918;-68
2022/12/17 20:25:17;;;;;;;54.78;21.02;;;-3.70;99.90;;;;;;7404412;19;19938;-68
2022/12/17 20:27:46;;;;;;;80.40;24.45;;;-3.00;99.90;;;;;;7405284;19;19914;-69
2022/12/17 20:30:16;;;;;;;84.18;27.42;;;-4.00;99.90;;;;;;7404733;19;20265;-68
2022/12/17 20:32:47;;;;;;;83.65;24.80;;;-4.20;99.90;;;;;;7404279;19;19922;-68
2022/12/17 20:35:16;;;;;;;60.92;18.80;;;-3.20;99.90;;;;;;7401791;19;19911;-68
2022/12/17 20:37:45;;;;;;;79.40;25.00;;;-3.50;99.90;;;;;;7404363;19;19919;-68
2022/12/17 20:40:16;;;;;;;73.18;22.35;;;-3.20;99.90;;;;;;7406074;19;19939;-68
2022/12/17 20:42:46;;;;;;;76.47;22.67;;;-4.20;99.90;;;;;;7404916;19;19994;-68
2022/12/17 20:45:18;;;;;;;70.55;22.58;;;-4.60;99.90;;;;;;7405406;19;19935;-68
2022/12/17 20:47:47;;;;;;;66.10;21.45;;;-3.30;99.90;;;;;;7404229;19;19919;-69
2022/12/17 20:50:17;;;;;;;68.55;22.00;;;-3.10;99.90;;;;;;7404073;19;19978;-69
2022/12/17 20:52:46;;;;;;;58.95;21.05;;;;;;;;;;7407755;19;19926;-68
2022/12/17 20:55:18;;;;;;;79.30;24.90;;;-3.20;99.90;;;;;;7403859;19;19952;-68
2022/12/17 20:57:47;;;;;;;79.05;22.83;;;-3.60;99.90;;;;;;7406199;19;19915;-69
2022/12/17 21:00:17;;;;;;;76.47;23.92;;;-3.50;99.90;;;;;;7402911;19;19915;-69
2022/12/17 21:02:46;;;;;;;92.53;24.52;;;-3.50;99.90;;;;;;7403379;19;20261;-68
2022/12/17 21:05:16;;;;;;;73.97;23.42;;;-4.10;99.90;;;;;;7403488;19;19928;-68
2022/12/17 21:07:46;;;;;;;81.13;23.08;;;-3.00;99.90;;;;;;7404298;19;19938;-69
2022/12/17 21:10:18;;;;;;;61.60;19.98;;;-3.50;99.90;;;;;;7403404;19;19932;-68
2022/12/17 21:15:30;;;;;;;69.78;22.73;;;-3.50;99.90;;;;;;7398215;19;20041;-68
2022/12/17 21:17:59;;;;;;;66.30;22.02;;;-4.40;99.90;;;;;;7403578;19;19938;-68
2022/12/17 21:20:28;;;;;;;60.80;18.77;;;-4.50;99.90;;;;;;7401060;19;19918;-68
2022/12/17 21:22:57;;;;;;;61.70;20.13;;;-4.30;99.90;;;;;;7407350;19;20314;-68
2022/12/17 21:25:29;;;;;;;58.25;18.95;;;-4.50;99.90;;;;;;7402551;19;19978;-68
2022/12/17 21:27:59;;;;;;;57.85;18.02;;;-4.20;99.90;;;;;;7402871;19;19932;-68
2022/12/17 21:30:29;;;;;;;64.80;19.83;;;-3.20;99.90;;;;;;7403176;19;19915;-68
2022/12/17 21:32:58;;;;;;;71.43;22.50;;;-3.60;99.90;;;;;;7407045;19;19950;-68
2022/12/17 21:35:28;;;;;;;74.78;22.25;;;-3.50;99.90;;;;;;7402914;19;19974;-69
2022/12/17 21:37:58;;;;;;;65.65;20.52;;;-4.40;99.90;;;;;;7403108;19;19918;-68
2022/12/17 21:40:30;;;;;;;69.43;20.95;;;-3.40;99.90;;;;;;7402607;19;19922;-68
2022/12/17 21:43:05;;;;;;;58.28;19.75;;;-3.70;99.90;;;;;;7403334;19;19926;-68
2022/12/17 21:45:38;;;;;;;63.28;21.45;;;-4.70;99.90;;;;;;7402465;19;19918;-67
2022/12/17 21:48:09;;;;;;;51.35;17.95;;;-4.70;99.90;;;;;;7410232;19;19922;-68
2022/12/17 21:50:42;;;;;;;65.32;19.17;;;-4.50;99.90;;;;;;7408897;19;19914;-68
2022/12/17 21:53:12;;;;;;;53.65;18.98;;;-4.00;99.90;;;;;;7408691;19;19923;-68
2022/12/17 21:55:44;;;;;;;67.90;20.88;;;-4.00;99.90;;;;;;7409568;19;19919;-68
2022/12/17 21:58:14;;;;;;;68.32;22.88;;;-3.50;99.90;;;;;;7408727;19;19925;-67
2022/12/17 22:00:43;;;;;;;71.30;22.38;;;-3.50;99.90;;;;;;7406797;19;19982;-68
2022/12/17 22:03:12;;;;;;;62.05;20.85;;;-3.20;99.90;;;;;;7408218;19;19907;-68
2022/12/17 22:05:44;;;;;;;52.92;18.33;;;-4.80;99.90;;;;;;7404097;19;20070;-68
2022/12/17 22:08:14;;;;;;;37.58;13.98;;;;;;;;;;7409384;19;19922;-68
2022/12/17 22:10:46;;;;;;;50.45;17.58;;;-4.70;99.90;;;;;;7409674;19;19938;-68
2022/12/17 22:15:57;;;;;;;53.97;19.38;;;-4.80;99.90;;;;;;7411273;19;20334;-69
2022/12/17 22:18:26;;;;;;;59.45;18.15;;;;;;;;;;7409661;19;19918;-69
2022/12/17 22:21:03;;;;;;;54.92;17.67;;;-4.30;99.90;;;;;;7407366;19;19918;-67
2022/12/17 22:23:32;;;;;;;50.60;17.02;;;-3.80;99.90;;;;;;7416614;19;19938;-67
2022/12/17 22:26:04;;;;;;;60.20;19.38;;;-4.80;99.90;;;;;;7408408;19;19914;-67
2022/12/17 22:28:33;;;;;;;63.28;20.52;;;;;;;;;;7416296;19;20484;-67
2022/12/17 22:33:50;;;;;;;57.08;19.83;;;-4.00;99.90;;;;;;7407783;19;20523;-67
2022/12/17 22:36:21;;;;;;;55.47;18.98;;;-4.00;99.90;;;;;;7407295;19;20355;-68
2022/12/17 22:38:50;;;;;;;66.90;19.75;;;-3.70;99.90;;;;;;7408879;19;19929;-67
2022/12/17 22:44:04;;;;;;;59.80;19.92;;;-5.10;99.90;;;;;;7412614;19;19926;-68
2022/12/17 22:46:34;;;;;;;68.47;23.23;;;-5.00;99.90;;;;;;7406052;19;20461;-67
2022/12/17 22:49:03;;;;;;;67.28;20.10;;;-4.20;99.90;;;;;;7407581;19;19914;-68
2022/12/17 22:51:32;;;;;;;56.92;20.02;;;-4.10;99.90;;;;;;7408578;19;19932;-68
2022/12/17 22:54:02;;;;;;;67.50;20.48;;;-4.20;99.90;;;;;;7407337;19;19971;-68
2022/12/17 22:56:35;;;;;;;67.10;20.42;;;-4.50;99.90;;;;;;7409023;19;19918;-68
2022/12/17 22:59:05;;;;;;;60.40;19.38;;;-5.00;99.90;;;;;;7404574;19;20277;-68
2022/12/17 23:01:35;;;;;;;74.90;21.08;;;-3.70;99.90;;;;;;7405092;19;19915;-67
2022/12/17 23:04:06;;;;;;;63.55;19.45;;;-3.70;99.90;;;;;;7407273;19;19935;-68
2022/12/17 23:06:35;;;;;;;68.05;22.33;;;-4.00;99.90;;;;;;7406153;19;19914;-67
2022/12/17 23:09:04;;;;;;;67.45;20.38;;;-4.50;99.90;;;;;;7407132;19;19915;-68
2022/12/17 23:11:36;;;;;;;54.60;18.83;;;-4.10;99.90;;;;;;7407242;19;19922;-68
2022/12/17 23:14:07;;;;;;;66.75;20.95;;;-3.90;99.90;;;;;;7409331;19;20322;-68
2022/12/17 23:16:36;;;;;;;58.92;19.80;;;-4.20;99.90;;;;;;7407453;19;19997;-68
2022/12/17 23:19:08;;;;;;;69.70;24.02;;;-4.90;99.90;;;;;;7410293;19;20365;-67
2022/12/17 23:21:37;;;;;;;59.05;19.55;;;-4.20;99.90;;;;;;7407425;19;20283;-68
2022/12/17 23:24:07;;;;;;;69.40;19.58;;;-4.70;99.90;;;;;;7410134;19;19922;-68
2022/12/17 23:26:39;;;;;;;59.38;20.10;;;-5.10;99.90;;;;;;7405989;19;19919;-68
2022/12/17 23:29:10;;;;;;;65.18;20.45;;;-4.00;99.90;;;;;;7406726;19;19938;-68
2022/12/17 23:31:42;;;;;;;72.20;21.67;;;-5.10;99.90;;;;;;7410506;19;19982;-68
2022/12/17 23:34:11;;;;;;;63.80;21.67;;;;;;;;;;7406628;19;19923;-68
2022/12/17 23:36:40;;;;;;;64.05;20.48;;;-4.40;99.90;;;;;;7406066;19;19965;-68
2022/12/17 23:39:09;;;;;;;53.47;19.52;;;-4.20;99.90;;;;;;7406182;19;19931;-68
2022/12/17 23:41:41;;;;;;;54.15;20.80;;;-4.40;99.90;;;;;;7408933;19;19923;-68
2022/12/17 23:44:10;;;;;;;54.70;19.25;;;;;;;;;;7406538;19;19915;-68
2022/12/17 23:46:39;;;;;;;59.53;17.55;;;-4.50;99.90;;;;;;7405208;19;19925;-68
2022/12/17 23:49:08;;;;;;;59.47;19.85;;;-4.60;99.90;;;;;;7405741;19;19922;-68
2022/12/17 23:51:43;;;;;;;55.72;20.13;;;-5.00;99.90;;;;;;7405249;19;20339;-68
2022/12/17 23:54:12;;;;;;;55.75;20.20;;;;;;;;;;7409636;19;19931;-68
2022/12/17 23:56:44;;;;;;;61.20;19.38;;;-4.90;99.90;;;;;;7405489;19;19966;-68
2022/12/17 23:59:13;;;;;;;53.28;19.23;;;-4.50;99.90;;;;;;7405706;19;19910;-68
